Misterton, United Kingdom
Current Conditions -  °F | °C
As of 2:50 PM on Thursday 30 Oct 2014 (Local Time) from EGCN Reporting Station
Overcast Overcast  
Wind Chill: 18°   Ceiling: 4100
Heat Index: 18°   Visibility: 6mi
Dew Point: 15°   Wind: 8mph
Humidity: 83%   Direction: 180°S
Pressure: 30"   Gusts: NA
Location:  53.45°N, 0.85°W
Report Text: EGCN 301450Z 18007KT 9999 OVC041 18/15 Q1016
Loading
Personal Weather Stations






























Interactive Weather Map
Tropical Storm Tracking
New forecast layout! Learn more

10-Day Weather Forecast

Advertisements
Track Severe Weather on mobile